Airfield :
LOGIN :

Register | Disclaimer

   EN    FR    IT 

 










Legend :    VFR   Marginal VFR   IFR   Intensive IFR   Very Intensive IFR
Visi :
Ceiling :
>= 8 km
>= 3000ft
5 to 8 km
1000 to 3000 ft
1500m to 5 km
500 to 1000 ft
800 to 1500m
200 to 500 ft
< 800m
< 200 ft
Symbols :   Thunderstorms  Fog  Heavy snow  Heavy precipitations  Wind > 20 kt
SIGMETs :     Misc.  Thunderstorms  Icing  Turbulence  Mountain Waves  Volcanic Ashes







- Airport Elevation : 14 ft
- IATA code : BRE


EDDW - Bremen Neuenland

CURRENT METAR :
  • 201620Z 12005KT 9999 FEW045 BKN150 02/00 Q1001 R88/290095 NOSIG

EXPIRED METARs :
  • 201550Z 13005KT 9999 BKN045 BKN150 03/00 Q1001 R88/290095 NOSIG
  • 201520Z 18005KT 9999 BKN030 03/01 Q1001 R88/290095 TEMPO BKN012
  • 201450Z 18006KT 9999 BKN030 03/01 Q1001 R88/290095 TEMPO BKN012
  • 201420Z 19006KT 9999 BKN030 03/01 Q1002 R88/290095 NOSIG
  • 201350Z 20007KT 170V230 9999 BKN025 03/01 Q1002 R88/290095 NOSIG

TAF TAF EDDW
Valid from the 20 at 12:00 until the 21 at 12:00 UTC


201100Z 2012/2112 21010KT 9999 BKN012
BECMG 2012/2015 BKN015
BECMG 2018/2021 15005KT 4000 BR BKN007
TEMPO 2021/2109 2000 -SN BKN004
BECMG 2109/2112 9999 BKN020
No reported NOTAMs for that airfield.



MET'MAP, your aeronautical weather chart ! - Copyright ORBIFLY December 2007 - Disclaimer

ORBIFLY MET'MAP TEAM :

Programming & Development : Alexandra Zaïnal
Concept & Development : Baudouin d'Aumeries
Co-Development & Prog : Marc-Olivier Méhu
Technical & hardware support : Manuel Goepfert

Contact : metmap@orbifly.com




SOURCES & CREDITS :

   NOAA